sensor_id;sensor_type;location;lat;lon;timestamp;P1;durP1;ratioP1;P2;durP2;ratioP2
4102;SDS011;2065;49.790;9.620;2023-06-14T00:00:47;7.17;;;5.97;;
4102;SDS011;2065;49.790;9.620;2023-06-14T00:03:14;10.40;;;6.13;;
4102;SDS011;2065;49.790;9.620;2023-06-14T00:05:43;6.53;;;5.77;;
4102;SDS011;2065;49.790;9.620;2023-06-14T00:08:11;6.37;;;5.77;;
4102;SDS011;2065;49.790;9.620;2023-06-14T00:10:38;6.60;;;5.40;;
4102;SDS011;2065;49.790;9.620;2023-06-14T00:13:08;7.10;;;6.40;;
4102;SDS011;2065;49.790;9.620;2023-06-14T00:15:35;7.10;;;6.40;;
4102;SDS011;2065;49.790;9.620;2023-06-14T00:18:03;8.13;;;6.30;;
4102;SDS011;2065;49.790;9.620;2023-06-14T00:20:31;5.97;;;5.47;;
4102;SDS011;2065;49.790;9.620;2023-06-14T00:22:59;7.10;;;6.40;;
4102;SDS011;2065;49.790;9.620;2023-06-14T00:25:26;7.63;;;6.03;;
4102;SDS011;2065;49.790;9.620;2023-06-14T00:27:53;7.13;;;6.10;;
4102;SDS011;2065;49.790;9.620;2023-06-14T00:30:22;6.80;;;6.20;;
4102;SDS011;2065;49.790;9.620;2023-06-14T00:32:49;6.37;;;5.60;;
4102;SDS011;2065;49.790;9.620;2023-06-14T00:35:16;11.93;;;6.40;;
4102;SDS011;2065;49.790;9.620;2023-06-14T00:37:43;6.63;;;5.90;;
4102;SDS011;2065;49.790;9.620;2023-06-14T00:40:10;7.43;;;6.63;;
4102;SDS011;2065;49.790;9.620;2023-06-14T00:42:37;6.90;;;6.20;;
4102;SDS011;2065;49.790;9.620;2023-06-14T00:45:05;6.97;;;6.17;;
4102;SDS011;2065;49.790;9.620;2023-06-14T00:47:34;7.40;;;6.70;;
4102;SDS011;2065;49.790;9.620;2023-06-14T00:50:03;10.17;;;6.90;;
4102;SDS011;2065;49.790;9.620;2023-06-14T00:52:33;7.40;;;6.70;;
4102;SDS011;2065;49.790;9.620;2023-06-14T00:55:01;8.23;;;6.23;;
4102;SDS011;2065;49.790;9.620;2023-06-14T00:57:29;7.47;;;6.67;;
4102;SDS011;2065;49.790;9.620;2023-06-14T00:59:56;8.77;;;7.27;;
4102;SDS011;2065;49.790;9.620;2023-06-14T01:02:24;8.17;;;7.37;;
4102;SDS011;2065;49.790;9.620;2023-06-14T01:04:52;7.10;;;6.37;;
4102;SDS011;2065;49.790;9.620;2023-06-14T01:07:24;8.97;;;6.27;;
4102;SDS011;2065;49.790;9.620;2023-06-14T01:10:04;6.40;;;5.80;;
4102;SDS011;2065;49.790;9.620;2023-06-14T01:12:42;8.57;;;6.60;;
4102;SDS011;2065;49.790;9.620;2023-06-14T01:15:16;11.77;;;7.13;;
4102;SDS011;2065;49.790;9.620;2023-06-14T01:17:44;7.60;;;6.60;;
4102;SDS011;2065;49.790;9.620;2023-06-14T01:20:14;7.57;;;6.77;;
4102;SDS011;2065;49.790;9.620;2023-06-14T01:22:48;7.50;;;6.50;;
4102;SDS011;2065;49.790;9.620;2023-06-14T01:25:17;7.47;;;6.50;;
4102;SDS011;2065;49.790;9.620;2023-06-14T01:27:47;7.30;;;6.50;;
4102;SDS011;2065;49.790;9.620;2023-06-14T01:30:14;7.70;;;5.83;;
4102;SDS011;2065;49.790;9.620;2023-06-14T01:32:42;6.77;;;6.07;;
4102;SDS011;2065;49.790;9.620;2023-06-14T01:35:10;8.10;;;5.93;;
4102;SDS011;2065;49.790;9.620;2023-06-14T01:37:38;9.07;;;6.37;;
4102;SDS011;2065;49.790;9.620;2023-06-14T01:40:08;8.37;;;6.97;;
4102;SDS011;2065;49.790;9.620;2023-06-14T01:42:37;8.27;;;5.57;;
4102;SDS011;2065;49.790;9.620;2023-06-14T01:45:06;6.60;;;5.90;;
4102;SDS011;2065;49.790;9.620;2023-06-14T01:47:35;6.30;;;5.70;;
4102;SDS011;2065;49.790;9.620;2023-06-14T01:50:02;6.30;;;5.37;;
4102;SDS011;2065;49.790;9.620;2023-06-14T01:52:30;9.83;;;6.03;;
4102;SDS011;2065;49.790;9.620;2023-06-14T01:54:57;7.00;;;6.30;;
4102;SDS011;2065;49.790;9.620;2023-06-14T01:57:30;6.70;;;5.97;;
4102;SDS011;2065;49.790;9.620;2023-06-14T01:59:58;6.63;;;6.00;;
4102;SDS011;2065;49.790;9.620;2023-06-14T02:02:25;6.53;;;5.93;;
4102;SDS011;2065;49.790;9.620;2023-06-14T02:04:52;6.50;;;5.77;;
4102;SDS011;2065;49.790;9.620;2023-06-14T02:07:22;6.10;;;5.60;;
4102;SDS011;2065;49.790;9.620;2023-06-14T02:09:50;10.17;;;6.70;;
4102;SDS011;2065;49.790;9.620;2023-06-14T02:12:17;8.70;;;6.03;;
4102;SDS011;2065;49.790;9.620;2023-06-14T02:14:46;8.90;;;6.20;;
4102;SDS011;2065;49.790;9.620;2023-06-14T02:17:13;7.23;;;6.10;;
4102;SDS011;2065;49.790;9.620;2023-06-14T02:19:41;6.70;;;6.10;;
4102;SDS011;2065;49.790;9.620;2023-06-14T02:22:08;6.43;;;5.73;;
4102;SDS011;2065;49.790;9.620;2023-06-14T02:24:35;8.83;;;6.30;;
4102;SDS011;2065;49.790;9.620;2023-06-14T02:27:05;7.43;;;6.30;;
4102;SDS011;2065;49.790;9.620;2023-06-14T02:29:35;7.50;;;6.60;;
4102;SDS011;2065;49.790;9.620;2023-06-14T02:32:04;7.53;;;6.83;;
4102;SDS011;2065;49.790;9.620;2023-06-14T02:34:33;6.07;;;5.47;;
4102;SDS011;2065;49.790;9.620;2023-06-14T02:37:00;8.63;;;6.20;;
4102;SDS011;2065;49.790;9.620;2023-06-14T02:39:28;7.57;;;6.83;;
4102;SDS011;2065;49.790;9.620;2023-06-14T02:41:55;8.83;;;7.77;;
4102;SDS011;2065;49.790;9.620;2023-06-14T02:44:24;7.03;;;6.30;;
4102;SDS011;2065;49.790;9.620;2023-06-14T02:46:52;6.30;;;5.70;;
4102;SDS011;2065;49.790;9.620;2023-06-14T02:49:21;12.10;;;7.23;;
4102;SDS011;2065;49.790;9.620;2023-06-14T02:51:48;14.50;;;6.77;;
4102;SDS011;2065;49.790;9.620;2023-06-14T02:54:15;6.97;;;6.37;;
4102;SDS011;2065;49.790;9.620;2023-06-14T02:56:42;7.13;;;5.67;;
4102;SDS011;2065;49.790;9.620;2023-06-14T02:59:09;6.10;;;5.50;;
4102;SDS011;2065;49.790;9.620;2023-06-14T03:01:38;7.93;;;5.97;;
4102;SDS011;2065;49.790;9.620;2023-06-14T03:04:07;7.63;;;5.90;;
4102;SDS011;2065;49.790;9.620;2023-06-14T03:06:39;8.97;;;6.47;;
4102;SDS011;2065;49.790;9.620;2023-06-14T03:09:06;9.13;;;6.43;;
4102;SDS011;2065;49.790;9.620;2023-06-14T03:11:36;6.97;;;5.47;;
4102;SDS011;2065;49.790;9.620;2023-06-14T03:14:03;9.37;;;6.13;;
4102;SDS011;2065;49.790;9.620;2023-06-14T03:16:32;6.77;;;6.17;;
4102;SDS011;2065;49.790;9.620;2023-06-14T03:18:59;7.53;;;5.80;;
4102;SDS011;2065;49.790;9.620;2023-06-14T03:21:30;7.47;;;6.57;;
4102;SDS011;2065;49.790;9.620;2023-06-14T03:24:01;8.27;;;6.37;;
4102;SDS011;2065;49.790;9.620;2023-06-14T03:26:29;8.50;;;6.30;;
4102;SDS011;2065;49.790;9.620;2023-06-14T03:28:57;10.63;;;7.10;;
4102;SDS011;2065;49.790;9.620;2023-06-14T03:31:31;6.47;;;5.87;;
4102;SDS011;2065;49.790;9.620;2023-06-14T03:34:00;10.13;;;6.77;;
4102;SDS011;2065;49.790;9.620;2023-06-14T03:36:27;9.30;;;6.70;;
4102;SDS011;2065;49.790;9.620;2023-06-14T03:38:54;7.27;;;6.17;;
4102;SDS011;2065;49.790;9.620;2023-06-14T03:41:23;7.90;;;5.83;;
4102;SDS011;2065;49.790;9.620;2023-06-14T03:43:52;6.70;;;6.10;;
4102;SDS011;2065;49.790;9.620;2023-06-14T03:46:18;14.10;;;6.97;;
4102;SDS011;2065;49.790;9.620;2023-06-14T03:48:45;9.07;;;7.07;;
4102;SDS011;2065;49.790;9.620;2023-06-14T03:51:13;7.97;;;6.20;;
4102;SDS011;2065;49.790;9.620;2023-06-14T03:53:40;9.50;;;5.93;;
4102;SDS011;2065;49.790;9.620;2023-06-14T03:56:07;6.60;;;6.00;;
4102;SDS011;2065;49.790;9.620;2023-06-14T03:58:40;7.00;;;5.63;;
4102;SDS011;2065;49.790;9.620;2023-06-14T04:01:08;10.00;;;6.17;;
4102;SDS011;2065;49.790;9.620;2023-06-14T04:03:35;6.50;;;5.90;;
4102;SDS011;2065;49.790;9.620;2023-06-14T04:06:03;7.03;;;5.63;;
4102;SDS011;2065;49.790;9.620;2023-06-14T04:08:31;9.93;;;7.13;;
4102;SDS011;2065;49.790;9.620;2023-06-14T04:10:58;8.47;;;6.50;;
4102;SDS011;2065;49.790;9.620;2023-06-14T04:13:25;10.47;;;7.57;;
4102;SDS011;2065;49.790;9.620;2023-06-14T04:15:53;7.60;;;6.23;;
4102;SDS011;2065;49.790;9.620;2023-06-14T04:18:26;7.20;;;6.50;;
4102;SDS011;2065;49.790;9.620;2023-06-14T04:20:53;8.40;;;6.23;;
4102;SDS011;2065;49.790;9.620;2023-06-14T04:23:21;8.20;;;5.70;;
4102;SDS011;2065;49.790;9.620;2023-06-14T04:25:49;9.40;;;6.17;;
4102;SDS011;2065;49.790;9.620;2023-06-14T04:28:16;7.47;;;6.53;;
4102;SDS011;2065;49.790;9.620;2023-06-14T04:30:44;12.60;;;6.83;;
4102;SDS011;2065;49.790;9.620;2023-06-14T04:33:14;7.10;;;6.33;;
4102;SDS011;2065;49.790;9.620;2023-06-14T04:35:42;9.70;;;6.77;;
4102;SDS011;2065;49.790;9.620;2023-06-14T04:38:12;6.93;;;6.23;;
4102;SDS011;2065;49.790;9.620;2023-06-14T04:40:41;7.07;;;5.97;;
4102;SDS011;2065;49.790;9.620;2023-06-14T04:43:10;9.10;;;6.90;;
4102;SDS011;2065;49.790;9.620;2023-06-14T04:45:39;8.90;;;6.50;;
4102;SDS011;2065;49.790;9.620;2023-06-14T04:48:10;7.37;;;6.50;;
4102;SDS011;2065;49.790;9.620;2023-06-14T04:50:39;7.60;;;6.90;;
4102;SDS011;2065;49.790;9.620;2023-06-14T04:53:09;10.20;;;6.03;;
4102;SDS011;2065;49.790;9.620;2023-06-14T04:55:36;10.30;;;5.80;;
4102;SDS011;2065;49.790;9.620;2023-06-14T04:58:04;8.40;;;6.30;;
4102;SDS011;2065;49.790;9.620;2023-06-14T05:00:31;7.40;;;5.80;;
4102;SDS011;2065;49.790;9.620;2023-06-14T05:02:58;6.60;;;6.00;;
4102;SDS011;2065;49.790;9.620;2023-06-14T05:05:26;10.80;;;6.23;;
4102;SDS011;2065;49.790;9.620;2023-06-14T05:07:55;6.93;;;5.73;;
4102;SDS011;2065;49.790;9.620;2023-06-14T05:10:22;10.00;;;6.93;;
4102;SDS011;2065;49.790;9.620;2023-06-14T05:12:49;8.03;;;6.87;;
4102;SDS011;2065;49.790;9.620;2023-06-14T05:15:18;10.77;;;5.90;;
4102;SDS011;2065;49.790;9.620;2023-06-14T05:17:45;7.30;;;6.10;;
4102;SDS011;2065;49.790;9.620;2023-06-14T05:20:19;8.07;;;6.00;;
4102;SDS011;2065;49.790;9.620;2023-06-14T05:22:48;33.23;;;5.87;;
4102;SDS011;2065;49.790;9.620;2023-06-14T05:25:18;6.87;;;6.20;;
4102;SDS011;2065;49.790;9.620;2023-06-14T05:27:45;5.93;;;5.27;;
4102;SDS011;2065;49.790;9.620;2023-06-14T05:30:12;7.73;;;6.43;;
4102;SDS011;2065;49.790;9.620;2023-06-14T05:32:40;7.57;;;5.83;;
4102;SDS011;2065;49.790;9.620;2023-06-14T05:35:07;6.30;;;5.50;;
4102;SDS011;2065;49.790;9.620;2023-06-14T05:37:35;6.33;;;5.67;;
4102;SDS011;2065;49.790;9.620;2023-06-14T05:40:03;8.70;;;5.87;;
4102;SDS011;2065;49.790;9.620;2023-06-14T05:42:33;6.30;;;5.70;;
4102;SDS011;2065;49.790;9.620;2023-06-14T05:45:00;8.23;;;6.00;;
4102;SDS011;2065;49.790;9.620;2023-06-14T05:47:27;7.77;;;5.60;;
4102;SDS011;2065;49.790;9.620;2023-06-14T05:49:54;5.87;;;5.27;;
4102;SDS011;2065;49.790;9.620;2023-06-14T05:52:21;7.50;;;5.53;;
4102;SDS011;2065;49.790;9.620;2023-06-14T05:54:48;6.77;;;5.33;;
4102;SDS011;2065;49.790;9.620;2023-06-14T05:57:15;6.43;;;5.33;;
4102;SDS011;2065;49.790;9.620;2023-06-14T05:59:43;8.13;;;5.60;;
4102;SDS011;2065;49.790;9.620;2023-06-14T06:02:10;6.37;;;5.30;;
4102;SDS011;2065;49.790;9.620;2023-06-14T06:04:37;6.17;;;5.57;;
4102;SDS011;2065;49.790;9.620;2023-06-14T06:07:04;8.30;;;5.00;;
4102;SDS011;2065;49.790;9.620;2023-06-14T06:09:32;6.00;;;5.10;;
4102;SDS011;2065;49.790;9.620;2023-06-14T06:11:59;5.90;;;5.30;;
4102;SDS011;2065;49.790;9.620;2023-06-14T06:14:26;6.80;;;4.90;;
4102;SDS011;2065;49.790;9.620;2023-06-14T06:16:54;7.20;;;5.17;;
4102;SDS011;2065;49.790;9.620;2023-06-14T06:19:21;5.50;;;4.70;;
4102;SDS011;2065;49.790;9.620;2023-06-14T06:21:48;7.03;;;4.60;;
4102;SDS011;2065;49.790;9.620;2023-06-14T06:24:15;9.13;;;5.13;;
4102;SDS011;2065;49.790;9.620;2023-06-14T06:26:42;5.27;;;4.73;;
4102;SDS011;2065;49.790;9.620;2023-06-14T06:29:09;5.70;;;5.20;;
4102;SDS011;2065;49.790;9.620;2023-06-14T06:31:36;8.17;;;4.33;;
4102;SDS011;2065;49.790;9.620;2023-06-14T06:34:05;5.67;;;4.77;;
4102;SDS011;2065;49.790;9.620;2023-06-14T06:36:32;6.23;;;5.63;;
4102;SDS011;2065;49.790;9.620;2023-06-14T06:38:58;5.73;;;5.00;;
4102;SDS011;2065;49.790;9.620;2023-06-14T06:41:26;6.40;;;4.83;;
4102;SDS011;2065;49.790;9.620;2023-06-14T06:43:53;8.30;;;5.40;;
4102;SDS011;2065;49.790;9.620;2023-06-14T06:46:20;5.40;;;5.00;;
4102;SDS011;2065;49.790;9.620;2023-06-14T06:48:47;11.60;;;5.60;;
4102;SDS011;2065;49.790;9.620;2023-06-14T06:51:16;6.50;;;5.73;;
4102;SDS011;2065;49.790;9.620;2023-06-14T06:53:43;7.03;;;4.73;;
4102;SDS011;2065;49.790;9.620;2023-06-14T06:56:10;6.93;;;5.57;;
4102;SDS011;2065;49.790;9.620;2023-06-14T06:58:37;5.37;;;4.90;;
4102;SDS011;2065;49.790;9.620;2023-06-14T07:01:04;5.90;;;4.63;;
4102;SDS011;2065;49.790;9.620;2023-06-14T07:03:31;6.17;;;5.57;;
4102;SDS011;2065;49.790;9.620;2023-06-14T07:05:58;5.83;;;5.33;;
4102;SDS011;2065;49.790;9.620;2023-06-14T07:08:26;5.60;;;5.10;;
4102;SDS011;2065;49.790;9.620;2023-06-14T07:10:53;6.13;;;5.53;;
4102;SDS011;2065;49.790;9.620;2023-06-14T07:13:20;8.13;;;4.90;;
4102;SDS011;2065;49.790;9.620;2023-06-14T07:15:47;6.43;;;4.53;;
4102;SDS011;2065;49.790;9.620;2023-06-14T07:18:14;8.47;;;5.60;;
4102;SDS011;2065;49.790;9.620;2023-06-14T07:20:41;6.20;;;5.70;;
4102;SDS011;2065;49.790;9.620;2023-06-14T07:23:08;8.97;;;5.47;;
4102;SDS011;2065;49.790;9.620;2023-06-14T07:25:37;5.10;;;4.70;;
4102;SDS011;2065;49.790;9.620;2023-06-14T07:28:04;10.53;;;5.00;;
4102;SDS011;2065;49.790;9.620;2023-06-14T07:30:31;7.97;;;5.37;;
4102;SDS011;2065;49.790;9.620;2023-06-14T07:32:59;8.40;;;5.50;;
4102;SDS011;2065;49.790;9.620;2023-06-14T07:35:26;5.60;;;5.07;;
4102;SDS011;2065;49.790;9.620;2023-06-14T07:37:53;5.37;;;4.87;;
4102;SDS011;2065;49.790;9.620;2023-06-14T07:40:20;6.17;;;5.57;;
4102;SDS011;2065;49.790;9.620;2023-06-14T07:42:49;8.40;;;5.77;;
4102;SDS011;2065;49.790;9.620;2023-06-14T07:45:16;9.70;;;5.40;;
4102;SDS011;2065;49.790;9.620;2023-06-14T07:47:44;8.30;;;5.50;;
4102;SDS011;2065;49.790;9.620;2023-06-14T07:50:11;6.57;;;5.33;;
4102;SDS011;2065;49.790;9.620;2023-06-14T07:52:39;10.10;;;5.40;;
4102;SDS011;2065;49.790;9.620;2023-06-14T07:55:06;6.43;;;5.37;;
4102;SDS011;2065;49.790;9.620;2023-06-14T07:57:33;6.00;;;5.40;;
4102;SDS011;2065;49.790;9.620;2023-06-14T08:00:02;4.83;;;4.33;;
4102;SDS011;2065;49.790;9.620;2023-06-14T08:02:37;5.50;;;5.00;;
4102;SDS011;2065;49.790;9.620;2023-06-14T08:05:04;10.30;;;5.97;;
4102;SDS011;2065;49.790;9.620;2023-06-14T08:07:31;6.00;;;4.80;;
4102;SDS011;2065;49.790;9.620;2023-06-14T08:09:58;9.43;;;5.00;;
4102;SDS011;2065;49.790;9.620;2023-06-14T08:12:26;4.50;;;4.10;;
4102;SDS011;2065;49.790;9.620;2023-06-14T08:14:52;5.33;;;4.83;;
4102;SDS011;2065;49.790;9.620;2023-06-14T08:17:21;8.23;;;5.77;;
4102;SDS011;2065;49.790;9.620;2023-06-14T08:19:48;5.13;;;4.63;;
4102;SDS011;2065;49.790;9.620;2023-06-14T08:22:15;5.20;;;4.70;;
4102;SDS011;2065;49.790;9.620;2023-06-14T08:24:43;5.13;;;4.73;;
4102;SDS011;2065;49.790;9.620;2023-06-14T08:27:10;5.50;;;5.00;;
4102;SDS011;2065;49.790;9.620;2023-06-14T08:29:38;5.17;;;4.07;;
4102;SDS011;2065;49.790;9.620;2023-06-14T08:32:07;11.03;;;4.77;;
4102;SDS011;2065;49.790;9.620;2023-06-14T08:34:35;5.10;;;4.60;;
4102;SDS011;2065;49.790;9.620;2023-06-14T08:37:02;5.40;;;4.27;;
4102;SDS011;2065;49.790;9.620;2023-06-14T08:39:30;5.73;;;4.53;;
4102;SDS011;2065;49.790;9.620;2023-06-14T08:41:57;4.47;;;4.07;;
4102;SDS011;2065;49.790;9.620;2023-06-14T08:44:27;5.37;;;4.90;;
4102;SDS011;2065;49.790;9.620;2023-06-14T08:46:54;4.70;;;4.33;;
4102;SDS011;2065;49.790;9.620;2023-06-14T08:49:23;5.77;;;5.23;;
4102;SDS011;2065;49.790;9.620;2023-06-14T08:51:55;6.70;;;4.90;;
4102;SDS011;2065;49.790;9.620;2023-06-14T08:54:24;6.30;;;5.23;;
4102;SDS011;2065;49.790;9.620;2023-06-14T08:56:52;5.63;;;5.00;;
4102;SDS011;2065;49.790;9.620;2023-06-14T08:59:23;6.87;;;4.40;;
4102;SDS011;2065;49.790;9.620;2023-06-14T09:01:51;6.93;;;4.80;;
4102;SDS011;2065;49.790;9.620;2023-06-14T09:04:19;5.50;;;4.97;;
4102;SDS011;2065;49.790;9.620;2023-06-14T09:06:47;5.47;;;4.90;;
4102;SDS011;2065;49.790;9.620;2023-06-14T09:09:19;5.93;;;4.60;;
4102;SDS011;2065;49.790;9.620;2023-06-14T09:11:48;6.53;;;4.70;;
4102;SDS011;2065;49.790;9.620;2023-06-14T09:14:15;4.70;;;4.30;;
4102;SDS011;2065;49.790;9.620;2023-06-14T09:16:43;5.23;;;4.03;;
4102;SDS011;2065;49.790;9.620;2023-06-14T09:19:13;5.70;;;4.27;;
4102;SDS011;2065;49.790;9.620;2023-06-14T09:21:47;8.33;;;4.60;;
4102;SDS011;2065;49.790;9.620;2023-06-14T09:24:14;4.80;;;4.40;;
4102;SDS011;2065;49.790;9.620;2023-06-14T09:26:43;8.50;;;5.37;;
4102;SDS011;2065;49.790;9.620;2023-06-14T09:29:13;8.57;;;4.70;;
4102;SDS011;2065;49.790;9.620;2023-06-14T09:31:40;4.67;;;4.17;;
4102;SDS011;2065;49.790;9.620;2023-06-14T09:34:07;6.73;;;5.60;;
4102;SDS011;2065;49.790;9.620;2023-06-14T09:36:35;6.80;;;4.67;;
4102;SDS011;2065;49.790;9.620;2023-06-14T09:39:02;5.27;;;4.87;;
4102;SDS011;2065;49.790;9.620;2023-06-14T09:41:31;6.80;;;4.90;;
4102;SDS011;2065;49.790;9.620;2023-06-14T09:44:00;5.50;;;4.20;;
4102;SDS011;2065;49.790;9.620;2023-06-14T09:46:29;5.67;;;4.63;;
4102;SDS011;2065;49.790;9.620;2023-06-14T09:48:56;5.70;;;5.07;;
4102;SDS011;2065;49.790;9.620;2023-06-14T09:51:23;5.33;;;4.93;;
4102;SDS011;2065;49.790;9.620;2023-06-14T09:53:51;5.27;;;4.83;;
4102;SDS011;2065;49.790;9.620;2023-06-14T09:56:20;7.73;;;4.70;;
4102;SDS011;2065;49.790;9.620;2023-06-14T09:58:52;4.70;;;4.20;;
4102;SDS011;2065;49.790;9.620;2023-06-14T10:01:23;5.07;;;4.57;;
4102;SDS011;2065;49.790;9.620;2023-06-14T10:03:53;9.67;;;5.17;;
4102;SDS011;2065;49.790;9.620;2023-06-14T10:06:23;7.40;;;4.30;;
4102;SDS011;2065;49.790;9.620;2023-06-14T10:08:52;5.93;;;4.67;;
4102;SDS011;2065;49.790;9.620;2023-06-14T10:11:25;6.07;;;4.63;;
4102;SDS011;2065;49.790;9.620;2023-06-14T10:13:52;9.43;;;4.43;;
4102;SDS011;2065;49.790;9.620;2023-06-14T10:16:23;4.27;;;3.87;;
4102;SDS011;2065;49.790;9.620;2023-06-14T10:18:59;9.13;;;4.70;;
4102;SDS011;2065;49.790;9.620;2023-06-14T10:21:32;4.63;;;4.23;;
4102;SDS011;2065;49.790;9.620;2023-06-14T10:24:05;5.27;;;4.77;;
4102;SDS011;2065;49.790;9.620;2023-06-14T10:26:34;4.70;;;4.30;;
4102;SDS011;2065;49.790;9.620;2023-06-14T10:29:06;4.80;;;4.40;;
4102;SDS011;2065;49.790;9.620;2023-06-14T10:31:43;4.87;;;4.47;;
4102;SDS011;2065;49.790;9.620;2023-06-14T10:34:10;4.90;;;4.37;;
4102;SDS011;2065;49.790;9.620;2023-06-14T10:36:38;4.43;;;4.03;;
4102;SDS011;2065;49.790;9.620;2023-06-14T10:39:10;4.70;;;4.30;;
4102;SDS011;2065;49.790;9.620;2023-06-14T10:41:41;13.80;;;4.77;;
4102;SDS011;2065;49.790;9.620;2023-06-14T10:47:08;4.97;;;4.30;;
4102;SDS011;2065;49.790;9.620;2023-06-14T10:49:37;4.70;;;4.30;;
4102;SDS011;2065;49.790;9.620;2023-06-14T10:52:09;4.53;;;4.10;;
4102;SDS011;2065;49.790;9.620;2023-06-14T10:54:59;4.40;;;3.80;;
4102;SDS011;2065;49.790;9.620;2023-06-14T10:57:35;4.73;;;3.90;;
4102;SDS011;2065;49.790;9.620;2023-06-14T11:00:03;6.63;;;3.60;;
4102;SDS011;2065;49.790;9.620;2023-06-14T11:02:49;4.27;;;3.80;;
4102;SDS011;2065;49.790;9.620;2023-06-14T11:05:23;6.83;;;4.43;;
4102;SDS011;2065;49.790;9.620;2023-06-14T11:08:02;4.63;;;4.23;;
4102;SDS011;2065;49.790;9.620;2023-06-14T11:10:53;4.80;;;4.40;;
4102;SDS011;2065;49.790;9.620;2023-06-14T11:13:23;7.23;;;4.40;;
4102;SDS011;2065;49.790;9.620;2023-06-14T11:15:51;3.80;;;3.30;;
4102;SDS011;2065;49.790;9.620;2023-06-14T11:18:21;3.40;;;3.20;;
4102;SDS011;2065;49.790;9.620;2023-06-14T11:20:50;4.13;;;3.50;;
4102;SDS011;2065;49.790;9.620;2023-06-14T11:23:17;4.53;;;3.97;;
4102;SDS011;2065;49.790;9.620;2023-06-14T11:25:48;4.33;;;3.93;;
4102;SDS011;2065;49.790;9.620;2023-06-14T11:28:16;4.83;;;3.80;;
4102;SDS011;2065;49.790;9.620;2023-06-14T11:30:44;4.90;;;3.67;;
4102;SDS011;2065;49.790;9.620;2023-06-14T11:33:16;4.13;;;3.77;;
4102;SDS011;2065;49.790;9.620;2023-06-14T11:35:46;6.20;;;4.10;;
4102;SDS011;2065;49.790;9.620;2023-06-14T11:38:13;4.33;;;3.93;;
4102;SDS011;2065;49.790;9.620;2023-06-14T11:40:40;5.23;;;3.67;;
4102;SDS011;2065;49.790;9.620;2023-06-14T11:43:07;5.00;;;4.60;;
4102;SDS011;2065;49.790;9.620;2023-06-14T11:45:34;5.00;;;3.97;;
4102;SDS011;2065;49.790;9.620;2023-06-14T11:48:02;3.60;;;3.30;;
4102;SDS011;2065;49.790;9.620;2023-06-14T11:50:30;4.03;;;3.73;;
4102;SDS011;2065;49.790;9.620;2023-06-14T11:53:00;6.20;;;3.50;;
4102;SDS011;2065;49.790;9.620;2023-06-14T11:55:32;6.70;;;3.80;;
4102;SDS011;2065;49.790;9.620;2023-06-14T11:58:01;4.10;;;3.80;;
4102;SDS011;2065;49.790;9.620;2023-06-14T12:00:29;4.63;;;3.83;;
4102;SDS011;2065;49.790;9.620;2023-06-14T12:02:56;4.13;;;3.83;;
4102;SDS011;2065;49.790;9.620;2023-06-14T12:05:23;11.30;;;4.40;;
4102;SDS011;2065;49.790;9.620;2023-06-14T12:07:57;5.30;;;3.93;;
4102;SDS011;2065;49.790;9.620;2023-06-14T12:10:26;3.57;;;3.33;;
4102;SDS011;2065;49.790;9.620;2023-06-14T12:12:56;4.47;;;3.87;;
4102;SDS011;2065;49.790;9.620;2023-06-14T12:15:24;7.23;;;3.97;;
4102;SDS011;2065;49.790;9.620;2023-06-14T12:17:54;4.07;;;3.77;;
4102;SDS011;2065;49.790;9.620;2023-06-14T12:20:21;4.80;;;3.87;;
4102;SDS011;2065;49.790;9.620;2023-06-14T12:22:53;3.87;;;3.57;;
4102;SDS011;2065;49.790;9.620;2023-06-14T12:25:27;5.70;;;3.63;;
4102;SDS011;2065;49.790;9.620;2023-06-14T12:27:57;3.80;;;3.50;;
4102;SDS011;2065;49.790;9.620;2023-06-14T12:30:25;5.60;;;3.97;;
4102;SDS011;2065;49.790;9.620;2023-06-14T12:32:51;5.33;;;3.63;;
4102;SDS011;2065;49.790;9.620;2023-06-14T12:35:18;3.83;;;3.53;;
4102;SDS011;2065;49.790;9.620;2023-06-14T12:37:46;4.23;;;3.80;;
4102;SDS011;2065;49.790;9.620;2023-06-14T12:40:13;3.90;;;3.60;;
4102;SDS011;2065;49.790;9.620;2023-06-14T12:42:44;4.77;;;4.07;;
4102;SDS011;2065;49.790;9.620;2023-06-14T12:45:12;3.40;;;3.10;;
4102;SDS011;2065;49.790;9.620;2023-06-14T12:47:39;3.60;;;3.30;;
4102;SDS011;2065;49.790;9.620;2023-06-14T12:50:07;4.07;;;3.10;;
4102;SDS011;2065;49.790;9.620;2023-06-14T12:52:35;5.37;;;3.80;;
4102;SDS011;2065;49.790;9.620;2023-06-14T12:55:02;4.17;;;3.70;;
4102;SDS011;2065;49.790;9.620;2023-06-14T12:57:30;3.60;;;3.20;;
4102;SDS011;2065;49.790;9.620;2023-06-14T13:00:00;4.13;;;3.77;;
4102;SDS011;2065;49.790;9.620;2023-06-14T13:02:28;5.13;;;3.57;;
4102;SDS011;2065;49.790;9.620;2023-06-14T13:04:55;3.17;;;2.97;;
4102;SDS011;2065;49.790;9.620;2023-06-14T13:07:24;3.87;;;3.57;;
4102;SDS011;2065;49.790;9.620;2023-06-14T13:09:51;4.93;;;3.27;;
4102;SDS011;2065;49.790;9.620;2023-06-14T13:12:18;5.60;;;3.70;;
4102;SDS011;2065;49.790;9.620;2023-06-14T13:14:45;4.63;;;2.90;;
4102;SDS011;2065;49.790;9.620;2023-06-14T13:17:13;8.80;;;3.10;;
4102;SDS011;2065;49.790;9.620;2023-06-14T13:19:40;5.50;;;3.40;;
4102;SDS011;2065;49.790;9.620;2023-06-14T13:22:08;5.13;;;2.90;;
4102;SDS011;2065;49.790;9.620;2023-06-14T13:24:35;3.47;;;3.20;;
4102;SDS011;2065;49.790;9.620;2023-06-14T13:27:03;3.17;;;2.87;;
4102;SDS011;2065;49.790;9.620;2023-06-14T13:29:30;3.37;;;3.07;;
4102;SDS011;2065;49.790;9.620;2023-06-14T13:31:58;3.00;;;2.80;;
4102;SDS011;2065;49.790;9.620;2023-06-14T13:34:27;3.00;;;2.80;;
4102;SDS011;2065;49.790;9.620;2023-06-14T13:36:54;6.17;;;3.37;;
4102;SDS011;2065;49.790;9.620;2023-06-14T13:39:21;4.33;;;3.33;;
4102;SDS011;2065;49.790;9.620;2023-06-14T13:41:48;4.23;;;3.93;;
4102;SDS011;2065;49.790;9.620;2023-06-14T13:44:15;3.80;;;3.50;;
4102;SDS011;2065;49.790;9.620;2023-06-14T13:46:43;5.10;;;3.37;;
4102;SDS011;2065;49.790;9.620;2023-06-14T13:49:10;4.40;;;3.43;;
4102;SDS011;2065;49.790;9.620;2023-06-14T13:51:39;3.90;;;3.60;;
4102;SDS011;2065;49.790;9.620;2023-06-14T13:54:06;3.70;;;3.40;;
4102;SDS011;2065;49.790;9.620;2023-06-14T13:56:33;3.20;;;3.00;;
4102;SDS011;2065;49.790;9.620;2023-06-14T13:59:00;5.20;;;3.23;;
4102;SDS011;2065;49.790;9.620;2023-06-14T14:01:27;5.27;;;3.37;;
4102;SDS011;2065;49.790;9.620;2023-06-14T14:03:54;3.47;;;3.17;;
4102;SDS011;2065;49.790;9.620;2023-06-14T14:06:21;3.83;;;3.53;;
4102;SDS011;2065;49.790;9.620;2023-06-14T14:08:49;4.90;;;2.73;;
4102;SDS011;2065;49.790;9.620;2023-06-14T14:11:17;3.20;;;2.93;;
4102;SDS011;2065;49.790;9.620;2023-06-14T14:13:45;5.00;;;3.17;;
4102;SDS011;2065;49.790;9.620;2023-06-14T14:16:13;3.30;;;3.00;;
4102;SDS011;2065;49.790;9.620;2023-06-14T14:18:40;3.63;;;3.20;;
4102;SDS011;2065;49.790;9.620;2023-06-14T14:21:07;3.13;;;2.93;;
4102;SDS011;2065;49.790;9.620;2023-06-14T14:23:34;3.83;;;3.43;;
4102;SDS011;2065;49.790;9.620;2023-06-14T14:26:03;3.70;;;3.40;;
4102;SDS011;2065;49.790;9.620;2023-06-14T14:28:30;5.43;;;4.27;;
4102;SDS011;2065;49.790;9.620;2023-06-14T14:30:57;7.50;;;3.40;;
4102;SDS011;2065;49.790;9.620;2023-06-14T14:33:24;4.97;;;3.60;;
4102;SDS011;2065;49.790;9.620;2023-06-14T14:35:51;4.00;;;3.30;;
4102;SDS011;2065;49.790;9.620;2023-06-14T14:38:18;4.20;;;3.23;;
4102;SDS011;2065;49.790;9.620;2023-06-14T14:40:45;4.80;;;3.53;;
4102;SDS011;2065;49.790;9.620;2023-06-14T14:43:13;3.40;;;3.07;;
4102;SDS011;2065;49.790;9.620;2023-06-14T14:45:41;4.50;;;3.10;;
4102;SDS011;2065;49.790;9.620;2023-06-14T14:48:08;4.43;;;3.30;;
4102;SDS011;2065;49.790;9.620;2023-06-14T14:50:35;6.57;;;3.30;;
4102;SDS011;2065;49.790;9.620;2023-06-14T14:53:01;3.33;;;3.03;;
4102;SDS011;2065;49.790;9.620;2023-06-14T14:55:28;4.33;;;3.40;;
4102;SDS011;2065;49.790;9.620;2023-06-14T14:57:55;6.93;;;3.00;;
4102;SDS011;2065;49.790;9.620;2023-06-14T15:00:24;7.00;;;2.97;;
4102;SDS011;2065;49.790;9.620;2023-06-14T15:02:51;3.47;;;3.10;;
4102;SDS011;2065;49.790;9.620;2023-06-14T15:05:18;3.37;;;2.90;;
4102;SDS011;2065;49.790;9.620;2023-06-14T15:07:45;3.17;;;2.80;;
4102;SDS011;2065;49.790;9.620;2023-06-14T15:10:12;3.17;;;2.70;;
4102;SDS011;2065;49.790;9.620;2023-06-14T15:12:40;2.73;;;2.53;;
4102;SDS011;2065;49.790;9.620;2023-06-14T15:15:07;3.20;;;3.00;;
4102;SDS011;2065;49.790;9.620;2023-06-14T15:17:36;3.77;;;3.43;;
4102;SDS011;2065;49.790;9.620;2023-06-14T15:20:06;4.37;;;3.47;;
4102;SDS011;2065;49.790;9.620;2023-06-14T15:22:34;3.60;;;3.27;;
4102;SDS011;2065;49.790;9.620;2023-06-14T15:25:00;6.10;;;3.33;;